Terminal Aerodrome Forecast
Issued by NWS Goodland, KS

Home | Current Version | Previous Version | Text Only | Print | Product List | Glossary On
Versions: 1 2 3 4 5 6 7 8 9 10 11 12 13 14
065
FTUS43 KGLD 081120
TAFGLD
TAF
KGLD 081120Z 0812/0912 32019G27KT P6SM FEW080 SCT250 WS020/34050KT
     FM081600 32018G28KT P6SM SCT080 SCT250
     FM090000 33010KT P6SM SCT080 SCT230
     FM090300 30010KT P6SM SCT080 SCT280=

USA.gov is the U.S. government's official web portal to all federal, state and local government web resources and services.